EmailTwitter


Observations de surface / Europe / LIRF (16242)

Régions: Québec | Canada | États-Unis | Europe | France | UK | Ailleurs
Station
Affichage
Infos & localisation pour LIRF (16242) | Aide pour décoder les METARs

Observations prises le 2020-02-20 à 21H20 UTC (LIRF)

Température: 5.0 Celsius

Point de rosée: 1.0 Celsius

Humidité relative: 75%

Vents: Nord-nord-ouest à 7 km/h ou 4 noeuds.

Pression au niveau moyen de la mer: 102.40 kilopascals.

Observation METAR:

LIRF 202120Z 34004KT CAVOK 05/01 Q1024 NOSIG=